createdAt,value
2018-06-23T00:01:49.141Z,95064.52
2018-06-23T00:04:15.865Z,95077.91
2018-06-23T00:06:42.463Z,95072.37
2018-06-23T00:09:09.157Z,95072.16
2018-06-23T00:11:35.816Z,95071.64
2018-06-23T00:14:02.472Z,95071.57
2018-06-23T00:16:29.120Z,95082.09
2018-06-23T00:18:55.786Z,95081.88
2018-06-23T00:21:22.395Z,95083.91
2018-06-23T00:23:49.028Z,95093.44
2018-06-23T00:26:15.708Z,95088.89
2018-06-23T00:28:42.387Z,95085.68
2018-06-23T00:31:09.030Z,95093.58
2018-06-23T00:33:35.677Z,95093.13
2018-06-23T00:36:02.318Z,95099.19
2018-06-23T00:38:29.007Z,95094.52
2018-06-23T00:40:55.641Z,95098.18
2018-06-23T00:43:22.361Z,95095.52
2018-06-23T00:45:48.965Z,95095.70
2018-06-23T00:48:15.645Z,95093.06
2018-06-23T00:50:42.399Z,95097.52
2018-06-23T00:53:09.121Z,95097.23
2018-06-23T00:55:35.796Z,95108.53
2018-06-23T00:58:02.571Z,95114.69
2018-06-23T01:00:29.214Z,95116.88
2018-06-23T01:02:56.924Z,95110.18
2018-06-23T01:05:23.611Z,95110.94
2018-06-23T01:07:50.283Z,95104.66
2018-06-23T01:10:16.917Z,95100.94
2018-06-23T01:12:43.541Z,95105.42
2018-06-23T01:15:10.262Z,95109.98
2018-06-23T01:17:36.866Z,95105.73
2018-06-23T01:20:03.506Z,95116.87
2018-06-23T01:22:30.164Z,95111.59
2018-06-23T01:24:56.810Z,95105.27
2018-06-23T01:27:23.496Z,95110.67
2018-06-23T01:29:50.125Z,95110.67
2018-06-23T01:32:16.774Z,95108.64
2018-06-23T01:34:43.418Z,95118.09
2018-06-23T01:37:10.098Z,95113.68
2018-06-23T01:39:36.780Z,95115.19
2018-06-23T01:42:03.471Z,95119.66
2018-06-23T01:44:30.107Z,95115.61
2018-06-23T01:46:56.747Z,95111.32
2018-06-23T01:49:23.390Z,95109.93
2018-06-23T01:51:50.077Z,95119.16
2018-06-23T01:54:16.710Z,95117.27
2018-06-23T01:56:43.400Z,95115.16
2018-06-23T01:59:10.045Z,95124.56
2018-06-23T02:01:36.728Z,95126.58
2018-06-23T02:04:03.378Z,95131.94
2018-06-23T02:06:30.068Z,95139.98
2018-06-23T02:08:56.706Z,95149.34
2018-06-23T02:11:23.337Z,95140.79
2018-06-23T02:13:49.986Z,95151.75
2018-06-23T02:16:16.618Z,95148.63
2018-06-23T02:18:43.305Z,95163.55
2018-06-23T02:21:09.942Z,95166.23
2018-06-23T02:23:36.654Z,95166.98
2018-06-23T02:26:03.285Z,95172.54
2018-06-23T02:28:29.970Z,95171.53
2018-06-23T02:30:56.665Z,95171.78
2018-06-23T02:33:23.313Z,95174.84
2018-06-23T02:35:49.958Z,95171.53
2018-06-23T02:38:16.648Z,95181.08
2018-06-23T02:40:43.286Z,95180.96
2018-06-23T02:43:09.928Z,95178.22
2018-06-23T02:45:36.590Z,95179.87
2018-06-23T02:48:03.229Z,95186.94
2018-06-23T02:50:29.919Z,95190.09
2018-06-23T02:52:56.557Z,95189.22
2018-06-23T02:55:23.209Z,95176.20
2018-06-23T02:57:49.849Z,95184.33
2018-06-23T03:00:16.561Z,95176.25
2018-06-23T03:02:43.205Z,95186.87
2018-06-23T03:05:09.862Z,95193.17
2018-06-23T03:07:36.502Z,95198.74
2018-06-23T03:10:03.142Z,95189.56
2018-06-23T03:12:29.789Z,95196.30
2018-06-23T03:14:56.426Z,95199.97
2018-06-23T03:17:23.074Z,95196.21
2018-06-23T03:19:49.709Z,95200.38
2018-06-23T03:22:16.397Z,95197.22
2018-06-23T03:24:43.086Z,95190.19
2018-06-23T03:27:09.725Z,95197.76
2018-06-23T03:29:36.408Z,95203.95
2018-06-23T03:32:03.052Z,95214.06
2018-06-23T03:34:29.731Z,95211.41
2018-06-23T03:36:56.366Z,95206.90
2018-06-23T03:39:23.014Z,95224.33
2018-06-23T03:41:49.648Z,95244.30
2018-06-23T03:44:16.341Z,95232.55
2018-06-23T03:46:43.013Z,95231.31
2018-06-23T03:49:09.614Z,95241.14
2018-06-23T03:51:36.301Z,95235.39
2018-06-23T03:54:02.954Z,95240.20
2018-06-23T03:56:29.635Z,95233.76
2018-06-23T03:58:56.283Z,95249.33
2018-06-23T04:01:22.969Z,95245.75
2018-06-23T04:03:49.609Z,95253.84
2018-06-23T04:06:16.285Z,95241.78
2018-06-23T04:08:42.977Z,95245.53
2018-06-23T04:11:09.613Z,95252.89
2018-06-23T04:13:36.252Z,95255.52
2018-06-23T04:16:03.039Z,95252.80
2018-06-23T04:18:29.673Z,95259.34
2018-06-23T04:20:56.447Z,95264.01
2018-06-23T04:23:23.082Z,95263.95
2018-06-23T04:25:49.776Z,95273.42
2018-06-23T04:28:16.405Z,95283.14
2018-06-23T04:30:43.390Z,95279.73
2018-06-23T04:33:10.082Z,95284.28
2018-06-23T04:35:36.782Z,95289.46
2018-06-23T04:38:03.476Z,95286.33
2018-06-23T04:40:30.126Z,95292.27
2018-06-23T04:42:56.796Z,95281.13
2018-06-23T04:45:23.436Z,95276.86
2018-06-23T04:47:50.070Z,95278.53
2018-06-23T04:50:16.732Z,95279.16
2018-06-23T04:52:43.460Z,95267.33
2018-06-23T04:55:10.094Z,95266.79
2018-06-23T04:57:36.734Z,95265.43
2018-06-23T05:00:03.378Z,95264.83
2018-06-23T05:02:30.018Z,95279.83
2018-06-23T05:04:56.651Z,95284.63
2018-06-23T05:07:23.292Z,95285.00
2018-06-23T05:09:49.939Z,95289.55
2018-06-23T05:12:16.594Z,95300.28
2018-06-23T05:14:43.254Z,95313.44
2018-06-23T05:17:09.895Z,95309.17
2018-06-23T05:19:36.529Z,95310.13
2018-06-23T05:22:03.170Z,95327.05
2018-06-23T05:24:29.857Z,95329.25
2018-06-23T05:26:56.544Z,95328.27
2018-06-23T05:29:23.188Z,95336.31
2018-06-23T05:31:49.869Z,95333.42
2018-06-23T05:34:16.483Z,95338.09
2018-06-23T05:36:43.142Z,95341.37
2018-06-23T05:39:09.816Z,95347.20
2018-06-23T05:41:36.503Z,95349.45
2018-06-23T05:44:03.146Z,95344.52
2018-06-23T05:46:29.778Z,95346.06
2018-06-23T05:48:56.417Z,95342.25
2018-06-23T05:51:24.879Z,95345.16
2018-06-23T05:53:49.742Z,95341.52
2018-06-23T05:56:16.379Z,95338.23
2018-06-23T05:58:43.076Z,95342.66
2018-06-23T06:01:09.776Z,95343.55
2018-06-23T06:03:36.417Z,95352.73
2018-06-23T06:06:03.102Z,95351.22
2018-06-23T06:08:29.775Z,95353.50
2018-06-23T06:10:56.429Z,95360.06
2018-06-23T06:13:23.076Z,95359.42
2018-06-23T06:15:49.763Z,95356.16
2018-06-23T06:18:16.394Z,95356.02
2018-06-23T06:20:43.078Z,95356.30
2018-06-23T06:23:09.711Z,95352.73
2018-06-23T06:25:36.405Z,95359.70
2018-06-23T06:28:03.093Z,95349.98
2018-06-23T06:30:29.771Z,95349.90
2018-06-23T06:32:56.453Z,95356.08
2018-06-23T06:35:23.089Z,95356.97
2018-06-23T06:37:49.730Z,95362.48
2018-06-23T06:40:16.389Z,95360.33
2018-06-23T06:42:43.023Z,95365.42
2018-06-23T06:45:09.798Z,95364.42
2018-06-23T06:47:36.402Z,95364.29
2018-06-23T06:50:03.081Z,95361.08
2018-06-23T06:52:30.822Z,95360.14
2018-06-23T06:54:56.439Z,95363.02
2018-06-23T06:57:23.085Z,95364.44
2018-06-23T06:59:49.774Z,95370.07
2018-06-23T07:02:16.400Z,95367.93
2018-06-23T07:04:43.035Z,95374.70
2018-06-23T07:07:09.683Z,95378.64
2018-06-23T07:09:36.314Z,95378.11
2018-06-23T07:12:02.990Z,95371.42
2018-06-23T07:14:29.635Z,95368.17
2018-06-23T07:16:56.320Z,95372.55
2018-06-23T07:19:23.007Z,95369.94
2018-06-23T07:21:49.654Z,95359.81
2018-06-23T07:24:16.367Z,95361.95
2018-06-23T07:26:42.958Z,95363.84
2018-06-23T07:29:09.598Z,95363.08
2018-06-23T07:31:36.243Z,95358.42
2018-06-23T07:34:02.889Z,95362.53
2018-06-23T07:36:29.522Z,95357.00
2018-06-23T07:38:56.172Z,95356.12
2018-06-23T07:41:22.805Z,95360.55
2018-06-23T07:43:49.480Z,95362.94
2018-06-23T07:46:16.102Z,95368.75
2018-06-23T07:48:42.742Z,95370.80
2018-06-23T07:51:09.377Z,95368.62
2018-06-23T07:53:36.027Z,95366.59
2018-06-23T07:56:02.669Z,95366.48
2018-06-23T07:58:29.312Z,95367.84
2018-06-23T08:00:55.963Z,95365.34
2018-06-23T08:03:22.643Z,95369.25
2018-06-23T08:05:49.242Z,95370.48
2018-06-23T08:08:15.891Z,95372.89
2018-06-23T08:10:42.523Z,95379.19
2018-06-23T08:13:09.167Z,95371.94
2018-06-23T08:15:35.809Z,95366.02
2018-06-23T08:18:02.456Z,95367.51
2018-06-23T08:20:29.136Z,95367.52
2018-06-23T08:22:55.741Z,95376.45
2018-06-23T08:25:22.378Z,95373.65
2018-06-23T08:27:49.012Z,95362.16
2018-06-23T08:30:15.659Z,95368.75
2018-06-23T08:32:45.443Z,95365.66
2018-06-23T08:35:12.174Z,95366.33
2018-06-23T08:37:38.843Z,95361.88
2018-06-23T08:40:05.466Z,95358.72
2018-06-23T08:42:32.144Z,95356.80
2018-06-23T08:44:58.751Z,95356.52
2018-06-23T08:47:25.409Z,95359.92
2018-06-23T08:49:52.053Z,95353.95
2018-06-23T08:52:18.720Z,95348.88
2018-06-23T08:54:45.373Z,95352.13
2018-06-23T08:57:12.013Z,95347.39
2018-06-23T08:59:38.650Z,95348.84
2018-06-23T09:02:05.303Z,95354.78
2018-06-23T09:04:31.941Z,95361.39
2018-06-23T09:06:58.574Z,95361.73
2018-06-23T09:09:25.224Z,95364.48
2018-06-23T09:11:51.865Z,95364.98
2018-06-23T09:14:18.504Z,95362.30
2018-06-23T09:16:45.235Z,95353.58
2018-06-23T09:19:11.777Z,95364.80
2018-06-23T09:21:38.448Z,95358.22
2018-06-23T09:24:05.099Z,95358.98
2018-06-23T09:26:31.731Z,95356.19
2018-06-23T09:28:58.382Z,95357.45
2018-06-23T09:31:25.155Z,95358.31
2018-06-23T09:33:51.767Z,95345.75
2018-06-23T09:36:18.401Z,95347.11
2018-06-23T09:38:45.057Z,95354.66
2018-06-23T09:41:11.691Z,95349.83
2018-06-23T09:43:38.334Z,95341.38
2018-06-23T09:46:05.052Z,95340.27
2018-06-23T09:48:31.660Z,95337.48
2018-06-23T09:50:58.268Z,95343.30
2018-06-23T09:53:24.906Z,95337.22
2018-06-23T09:55:51.593Z,95335.70
2018-06-23T09:58:18.187Z,95333.27
2018-06-23T10:00:44.818Z,95342.96
2018-06-23T10:03:11.503Z,95336.42
2018-06-23T10:05:38.146Z,95336.14
2018-06-23T10:08:04.788Z,95332.80
2018-06-23T10:10:31.422Z,95333.10
2018-06-23T10:15:24.775Z,95330.28
2018-06-23T10:17:51.374Z,95329.39
2018-06-23T10:20:18.022Z,95326.44
2018-06-23T10:22:44.668Z,95327.92
2018-06-23T10:25:11.305Z,95321.63
2018-06-23T10:27:37.988Z,95316.44
2018-06-23T10:30:04.590Z,95315.72
2018-06-23T10:32:31.241Z,95310.03
2018-06-23T10:34:57.875Z,95314.25
2018-06-23T10:37:24.515Z,95308.52
2018-06-23T10:39:51.207Z,95301.35
2018-06-23T10:42:17.846Z,95301.98
2018-06-23T10:44:44.486Z,95295.78
2018-06-23T10:47:11.128Z,95289.36
2018-06-23T10:49:37.768Z,95293.84
2018-06-23T10:52:04.419Z,95289.83
2018-06-23T10:54:31.065Z,95279.84
2018-06-23T10:56:57.727Z,95276.16
2018-06-23T10:59:24.365Z,95276.16
2018-06-23T11:01:51.036Z,95272.84
2018-06-23T11:04:17.681Z,95264.05
2018-06-23T11:06:44.322Z,95265.52
2018-06-23T11:09:10.957Z,95264.98
2018-06-23T11:11:37.602Z,95260.25
2018-06-23T11:14:04.237Z,95255.63
2018-06-23T11:16:30.885Z,95241.78
2018-06-23T11:18:57.534Z,95233.47
2018-06-23T11:21:24.171Z,95233.05
2018-06-23T11:23:50.808Z,95233.93
2018-06-23T11:26:17.446Z,95236.05
2018-06-23T11:28:44.099Z,95230.72
2018-06-23T11:31:10.747Z,95223.88
2018-06-23T11:33:37.430Z,95225.73
2018-06-23T11:36:04.065Z,95217.25
2018-06-23T11:38:30.696Z,95222.33
2018-06-23T11:40:57.413Z,95220.94
2018-06-23T11:43:24.050Z,95215.72
2018-06-23T11:45:50.703Z,95213.34
2018-06-23T11:48:17.336Z,95207.27
2018-06-23T11:50:43.983Z,95199.91
2018-06-23T11:53:10.702Z,95204.73
2018-06-23T11:55:37.278Z,95202.94
2018-06-23T11:58:03.924Z,95206.48
2018-06-23T12:00:30.796Z,95204.92
2018-06-23T12:02:57.461Z,95203.53
2018-06-23T12:05:24.095Z,95203.78
2018-06-23T12:07:50.764Z,95196.23
2018-06-23T12:10:17.399Z,95195.58
2018-06-23T12:12:44.057Z,95201.00
2018-06-23T12:15:10.749Z,95198.48
2018-06-23T12:17:37.385Z,95201.64
2018-06-23T12:20:04.079Z,95198.22
2018-06-23T12:22:30.769Z,95198.73
2018-06-23T12:24:57.407Z,95195.97
2018-06-23T12:27:24.043Z,95184.63
2018-06-23T12:29:50.729Z,95182.92
2018-06-23T12:32:17.367Z,95176.53
2018-06-23T12:34:43.998Z,95178.63
2018-06-23T12:37:10.649Z,95175.81
2018-06-23T12:39:37.289Z,95174.63
2018-06-23T12:42:03.931Z,95173.24
2018-06-23T12:44:30.577Z,95178.37
2018-06-23T12:46:57.252Z,95171.66
2018-06-23T12:49:23.863Z,95170.66
2018-06-23T12:51:50.495Z,95172.23
2018-06-23T12:54:17.138Z,95169.63
2018-06-23T12:56:43.825Z,95169.58
2018-06-23T12:59:10.493Z,95166.77
2018-06-23T13:01:37.099Z,95169.52
2018-06-23T13:04:03.742Z,95159.68
2018-06-23T13:06:30.378Z,95154.30
2018-06-23T13:08:57.022Z,95155.89
2018-06-23T13:11:23.733Z,95154.01
2018-06-23T13:13:50.391Z,95154.24
2018-06-23T13:16:17.020Z,95151.11
2018-06-23T13:18:43.670Z,95145.39
2018-06-23T13:21:11.292Z,95159.70
2018-06-23T13:23:37.936Z,95156.27
2018-06-23T13:26:04.582Z,95151.61
2018-06-23T13:28:31.217Z,95155.84
2018-06-23T13:30:57.939Z,95151.83
2018-06-23T13:33:24.579Z,95144.64
2018-06-23T13:35:51.220Z,95148.67
2018-06-23T13:38:17.861Z,95149.64
2018-06-23T13:40:44.501Z,95147.48
2018-06-23T13:43:11.137Z,95149.52
2018-06-23T13:45:37.823Z,95142.55
2018-06-23T13:48:04.474Z,95143.31
2018-06-23T13:50:31.110Z,95148.38
2018-06-23T13:52:57.755Z,95142.94
2018-06-23T13:55:24.406Z,95139.25
2018-06-23T13:57:51.155Z,95136.78
2018-06-23T14:00:17.801Z,95146.16
2018-06-23T14:02:44.440Z,95144.75
2018-06-23T14:05:11.090Z,95143.03
2018-06-23T14:07:37.728Z,95141.64
2018-06-23T14:10:04.414Z,95142.28
2018-06-23T14:12:31.062Z,95138.31
2018-06-23T14:14:57.695Z,95133.23
2018-06-23T14:17:24.358Z,95126.41
2018-06-23T14:19:51.004Z,95135.44
2018-06-23T14:22:17.649Z,95132.98
2018-06-23T14:24:44.289Z,95125.73
2018-06-23T14:27:10.942Z,95116.95
2018-06-23T14:29:37.582Z,95115.56
2018-06-23T14:32:04.656Z,95119.58
2018-06-23T14:34:30.921Z,95121.98
2018-06-23T14:36:57.608Z,95120.21
2018-06-23T14:39:24.248Z,95118.35
2018-06-23T14:41:50.885Z,95126.04
2018-06-23T14:44:17.522Z,95122.67
2018-06-23T14:46:44.178Z,95115.81
2018-06-23T14:49:10.823Z,95110.02
2018-06-23T14:51:37.496Z,95118.88
2018-06-23T14:54:04.132Z,95112.49
2018-06-23T14:56:30.738Z,95117.73
2018-06-23T14:58:57.374Z,95116.47
2018-06-23T15:01:24.038Z,95117.86
2018-06-23T15:03:50.676Z,95123.16
2018-06-23T15:06:17.327Z,95113.94
2018-06-23T15:08:44.010Z,95127.22
2018-06-23T15:11:10.651Z,95129.14
2018-06-23T15:13:37.301Z,95123.92
2018-06-23T15:16:03.979Z,95131.14
2018-06-23T15:18:30.670Z,95134.83
2018-06-23T15:20:57.311Z,95135.20
2018-06-23T15:23:23.959Z,95136.45
2018-06-23T15:25:50.613Z,95140.56
2018-06-23T15:28:17.262Z,95143.06
2018-06-23T15:30:43.908Z,95144.31
2018-06-23T15:33:10.546Z,95149.39
2018-06-23T15:35:37.197Z,95153.09
2018-06-23T15:38:03.832Z,95152.55
2018-06-23T15:40:30.477Z,95148.80
2018-06-23T15:42:57.151Z,95147.73
2018-06-23T15:45:23.842Z,95150.95
2018-06-23T15:47:50.474Z,95155.13
2018-06-23T15:50:17.161Z,95150.56
2018-06-23T15:52:43.869Z,95160.15
2018-06-23T15:55:10.524Z,95164.49
2018-06-23T15:57:37.165Z,95161.83
2018-06-23T16:00:03.813Z,95165.77
2018-06-23T16:02:30.465Z,95164.88
2018-06-23T16:04:57.124Z,95171.20
2018-06-23T16:07:23.791Z,95165.62
2018-06-23T16:09:50.401Z,95168.79
2018-06-23T16:12:17.042Z,95171.13
2018-06-23T16:14:43.721Z,95176.53
2018-06-23T16:17:10.352Z,95171.01
2018-06-23T16:19:36.993Z,95172.78
2018-06-23T16:22:03.630Z,95181.39
2018-06-23T16:24:30.269Z,95180.38
2018-06-23T16:26:56.966Z,95190.38
2018-06-23T16:29:23.604Z,95183.05
2018-06-23T16:31:50.239Z,95186.49
2018-06-23T16:34:16.889Z,95191.19
2018-06-23T16:36:43.535Z,95191.06
2018-06-23T16:39:10.222Z,95190.44
2018-06-23T16:41:36.871Z,95195.62
2018-06-23T16:44:03.502Z,95193.09
2018-06-23T16:46:30.143Z,95202.63
2018-06-23T16:48:56.785Z,95198.66
2018-06-23T16:51:23.436Z,95198.95
2018-06-23T16:53:50.083Z,95209.21
2018-06-23T16:56:16.728Z,95208.20
2018-06-23T16:58:43.409Z,95209.27
2018-06-23T17:01:10.059Z,95206.48
2018-06-23T17:03:36.780Z,95217.39
2018-06-23T17:06:03.367Z,95213.20
2018-06-23T17:08:29.973Z,95214.47
2018-06-23T17:10:56.644Z,95216.10
2018-06-23T17:13:23.285Z,95216.23
2018-06-23T17:15:49.960Z,95216.34
2018-06-23T17:18:16.594Z,95216.36
2018-06-23T17:20:43.291Z,95210.99
2018-06-23T17:23:10.014Z,95215.72
2018-06-23T17:25:36.611Z,95213.22
2018-06-23T17:28:03.295Z,95221.09
2018-06-23T17:30:29.930Z,95228.45
2018-06-23T17:32:56.619Z,95227.18
2018-06-23T17:35:23.304Z,95225.58
2018-06-23T17:37:49.946Z,95232.08
2018-06-23T17:40:16.595Z,95230.70
2018-06-23T17:42:43.470Z,95232.86
2018-06-23T17:45:10.109Z,95234.67
2018-06-23T17:47:36.743Z,95231.30
2018-06-23T17:50:03.389Z,95235.56
2018-06-23T17:52:30.101Z,95241.55
2018-06-23T17:54:58.005Z,95245.23
2018-06-23T17:57:23.412Z,95242.09
2018-06-23T17:59:50.033Z,95247.42
2018-06-23T18:02:16.670Z,95252.23
2018-06-23T18:04:43.313Z,95249.19
2018-06-23T18:07:09.989Z,95253.36
2018-06-23T18:09:36.640Z,95254.55
2018-06-23T18:12:03.270Z,95254.30
2018-06-23T18:14:29.943Z,95255.09
2018-06-23T18:16:56.583Z,95265.09
2018-06-23T18:19:23.218Z,95264.50
2018-06-23T18:21:49.902Z,95265.60
2018-06-23T18:24:16.580Z,95269.69
2018-06-23T18:26:43.217Z,95271.12
2018-06-23T18:29:09.927Z,95277.66
2018-06-23T18:31:36.540Z,95277.95
2018-06-23T18:34:03.209Z,95278.50
2018-06-23T18:36:29.847Z,95282.05
2018-06-23T18:38:56.530Z,95287.86
2018-06-23T18:41:23.161Z,95294.70
2018-06-23T18:43:49.851Z,95300.38
2018-06-23T18:46:16.526Z,95294.48
2018-06-23T18:48:43.206Z,95299.03
2018-06-23T18:51:09.886Z,95297.68
2018-06-23T18:53:36.521Z,95305.64
2018-06-23T18:56:03.162Z,95312.70
2018-06-23T18:58:33.309Z,95318.16
2018-06-23T19:00:59.947Z,95324.88
2018-06-23T19:03:26.592Z,95327.18
2018-06-23T19:05:53.250Z,95332.88
2018-06-23T19:08:19.955Z,95335.44
2018-06-23T19:10:46.586Z,95330.39
2018-06-23T19:13:13.257Z,95338.22
2018-06-23T19:15:39.936Z,95337.46
2018-06-23T19:18:06.610Z,95338.26
2018-06-23T19:20:33.220Z,95346.73
2018-06-23T19:22:59.870Z,95349.52
2018-06-23T19:25:26.549Z,95352.33
2018-06-23T19:27:53.185Z,95351.95
2018-06-23T19:30:19.841Z,95351.45
2018-06-23T19:32:46.477Z,95348.03
2018-06-23T19:35:13.188Z,95349.30
2018-06-23T19:37:39.796Z,95350.06
2018-06-23T19:40:06.493Z,95341.23
2018-06-23T19:42:33.133Z,95344.66
2018-06-23T19:44:59.778Z,95344.91
2018-06-23T19:47:26.422Z,95349.33
2018-06-23T19:49:53.059Z,95347.34
2018-06-23T19:52:19.733Z,95351.77
2018-06-23T19:54:46.375Z,95346.72
2018-06-23T19:57:13.054Z,95350.77
2018-06-23T19:59:39.692Z,95349.25
2018-06-23T20:02:06.367Z,95346.34
2018-06-23T20:04:34.436Z,95343.46
2018-06-23T20:06:59.691Z,95343.08
2018-06-23T20:09:26.337Z,95340.69
2018-06-23T20:11:53.010Z,95345.11
2018-06-23T20:14:19.643Z,95345.77
2018-06-23T20:16:46.326Z,95350.33
2018-06-23T20:19:13.011Z,95352.19
2018-06-23T20:21:39.648Z,95352.98
2018-06-23T20:24:06.332Z,95347.83
2018-06-23T20:26:32.965Z,95352.63
2018-06-23T20:28:59.601Z,95354.78
2018-06-23T20:31:26.259Z,95357.81
2018-06-23T20:33:52.942Z,95353.04
2018-06-23T20:36:19.629Z,95352.50
2018-06-23T20:38:46.261Z,95357.21
2018-06-23T20:41:12.893Z,95355.31
2018-06-23T20:43:39.542Z,95351.66
2018-06-23T20:46:06.260Z,95353.42
2018-06-23T20:48:32.899Z,95359.23
2018-06-23T20:50:59.605Z,95349.13
2018-06-23T20:53:26.278Z,95353.86
2018-06-23T20:55:52.917Z,95349.91
2018-06-23T20:58:19.593Z,95353.71
2018-06-23T21:00:46.283Z,95351.63
2018-06-23T21:03:12.969Z,95352.48
2018-06-23T21:05:39.656Z,95347.05
2018-06-23T21:08:06.291Z,95340.72
2018-06-23T21:10:32.963Z,95352.95
2018-06-23T21:12:59.587Z,95349.60
2018-06-23T21:15:26.226Z,95346.19
2018-06-23T21:17:52.954Z,95353.17
2018-06-23T21:20:19.636Z,95347.98
2018-06-23T21:22:46.277Z,95351.66
2018-06-23T21:25:12.921Z,95356.33
2018-06-23T21:27:39.553Z,95356.20
2018-06-23T21:30:06.199Z,95354.43
2018-06-23T21:32:33.020Z,95346.63
2018-06-23T21:34:59.528Z,95350.92
2018-06-23T21:37:26.165Z,95355.34
2018-06-23T21:39:52.797Z,95355.98
2018-06-23T21:42:19.499Z,95357.88
2018-06-23T21:44:46.142Z,95353.33
2018-06-23T21:47:12.775Z,95352.09
2018-06-23T21:49:39.466Z,95355.25
2018-06-23T21:52:06.151Z,95352.09
2018-06-23T21:54:32.787Z,95349.31
2018-06-23T21:56:59.465Z,95344.55
2018-06-23T21:59:26.199Z,95345.64
2018-06-23T22:01:52.839Z,95341.63
2018-06-23T22:04:19.475Z,95340.88
2018-06-23T22:06:46.180Z,95344.16
2018-06-23T22:09:12.817Z,95343.02
2018-06-23T22:11:39.457Z,95342.39
2018-06-23T22:14:06.104Z,95336.96
2018-06-23T22:16:32.767Z,95342.90
2018-06-23T22:18:59.411Z,95341.76
2018-06-23T22:21:26.124Z,95341.28
2018-06-23T22:23:52.777Z,95351.89
2018-06-23T22:26:19.424Z,95340.55
2018-06-23T22:28:46.102Z,95346.77
2018-06-23T22:31:12.788Z,95350.16
2018-06-23T22:33:39.424Z,95351.83
2018-06-23T22:36:06.074Z,95346.52
2018-06-23T22:38:32.713Z,95349.55
2018-06-23T22:40:59.360Z,95351.06
2018-06-23T22:43:26.119Z,95345.00
2018-06-23T22:45:52.786Z,95348.44
2018-06-23T22:48:19.433Z,95353.39
2018-06-23T22:50:46.071Z,95340.89
2018-06-23T22:53:12.762Z,95344.68
2018-06-23T22:55:39.445Z,95341.30
2018-06-23T22:58:06.165Z,95344.68
2018-06-23T23:00:32.757Z,95337.98
2018-06-23T23:02:59.398Z,95329.08
2018-06-23T23:05:26.083Z,95338.27
2018-06-23T23:07:52.719Z,95335.48
2018-06-23T23:10:19.366Z,95335.54
2018-06-23T23:12:46.047Z,95335.77
2018-06-23T23:15:12.684Z,95330.23
2018-06-23T23:17:39.322Z,95334.02
2018-06-23T23:20:05.970Z,95326.70
2018-06-23T23:22:32.604Z,95323.57
2018-06-23T23:24:59.319Z,95326.22
2018-06-23T23:27:25.924Z,95322.31
2018-06-23T23:29:52.737Z,95315.39
2018-06-23T23:32:19.364Z,95311.19
2018-06-23T23:34:46.002Z,95317.76
2018-06-23T23:37:15.793Z,95313.49
2018-06-23T23:39:42.426Z,95313.74
2018-06-23T23:42:09.113Z,95312.77
2018-06-23T23:44:35.761Z,95314.63
2018-06-23T23:47:02.444Z,95315.52
2018-06-23T23:49:29.078Z,95316.55
2018-06-23T23:51:55.729Z,95318.31
2018-06-23T23:54:22.408Z,95311.38
2018-06-23T23:56:49.040Z,95312.16
2018-06-23T23:59:15.677Z,95313.27
